Enter the Airport ICAO Code

Search by Airport or City

Current Weather

LELN | León Airport

León, Castile and León, Spain

Last Update 18 Minutes Ago

Light Rain

Temperature of 06 ºC

Moderate Winds from SouthEast

Temperature

06 ºC

Dew Point Temperature

06 ºC

Relative Humidity

100 %

Wind Direction

SouthEast (150º, Without Significant Variations)

Wind Velocity

20 km/h (11 kt)

Gusts

None

Visibility

Greater than 10 Kilometers

Sea Level Pressure

1000 hPa (Hectopascals)

Layers of Clouds

60% to 90% of Sky Covered from 91 mts (300 ft) Above Ground Level.

METAR LELN 160700Z 15011KT 9999 -RA BKN003 06/06 Q1000

Weather Forecast

LELN | León Airport

León, Castile and León, Spain

Forecast valid for the next 8 Hours

From now on it is expected:

Mostly Cloudy Sky

Moderate Winds from South

Maximum Temperature

No Data

Minimum Temperature

No Data

TAF LELN 160500Z 1606/1615 16012KT 9999 BKN014 TEMPO 1606/1615 3000 RA BKN009 PROB40 TEMPO 1606/1615 BKN003